createdAt,value
2023-02-08T00:00:54.782Z,-2.06
2023-02-08T00:03:21.737Z,-2.35
2023-02-08T00:05:48.670Z,-2.27
2023-02-08T00:08:15.779Z,-2.28
2023-02-08T00:10:44.605Z,-2.30
2023-02-08T00:13:11.111Z,-2.23
2023-02-08T00:15:44.950Z,-1.86
2023-02-08T00:18:11.940Z,-2.03
2023-02-08T00:20:40.499Z,-1.83
2023-02-08T00:23:07.807Z,-1.46
2023-02-08T00:25:35.098Z,-1.27
2023-02-08T00:28:05.384Z,-1.22
2023-02-08T00:30:35.921Z,-1.20
2023-02-08T00:33:02.729Z,-0.78
2023-02-08T00:35:29.449Z,-1.10
2023-02-08T00:37:57.138Z,-0.97
2023-02-08T00:40:24.005Z,-0.78
2023-02-08T00:42:50.682Z,-0.59
2023-02-08T00:45:17.515Z,-0.58
2023-02-08T00:47:43.850Z,-0.58
2023-02-08T00:50:10.950Z,-0.20
2023-02-08T00:52:37.463Z,-0.44
2023-02-08T00:55:05.066Z,-0.45
2023-02-08T00:57:35.192Z,-0.33
2023-02-08T01:00:02.227Z,-0.45
2023-02-08T01:02:31.257Z,-0.25
2023-02-08T01:05:00.100Z,-0.30
2023-02-08T01:07:29.911Z,-0.37
2023-02-08T01:10:00.004Z,-0.21
2023-02-08T01:12:26.366Z,-0.46
2023-02-08T01:14:52.967Z,-0.27
2023-02-08T01:17:19.318Z,-0.34
2023-02-08T01:19:45.666Z,-0.35
2023-02-08T01:22:12.057Z,-0.51
2023-02-08T01:24:38.450Z,-0.62
2023-02-08T01:27:07.146Z,-0.59
2023-02-08T01:29:36.134Z,-0.56
2023-02-08T01:32:02.483Z,-0.59
2023-02-08T01:34:33.514Z,-0.58
2023-02-08T01:36:59.882Z,-0.66
2023-02-08T01:39:26.420Z,-0.48
2023-02-08T01:41:55.697Z,-0.62
2023-02-08T01:45:00.129Z,-0.76
2023-02-08T01:47:26.969Z,-0.72
2023-02-08T01:49:53.545Z,-0.77
2023-02-08T01:52:25.018Z,-0.88
2023-02-08T01:54:57.637Z,-1.07
2023-02-08T01:57:29.796Z,-1.23
2023-02-08T02:00:03.820Z,-1.26
2023-02-08T02:02:34.112Z,-1.41
2023-02-08T02:05:01.585Z,-1.43
2023-02-08T02:07:33.176Z,-1.55
2023-02-08T02:10:14.610Z,-1.64
2023-02-08T02:12:42.791Z,-1.69
2023-02-08T02:15:10.335Z,-1.76
2023-02-08T02:17:39.596Z,-1.88
2023-02-08T02:20:28.499Z,-1.72
2023-02-08T02:22:58.117Z,-1.84
2023-02-08T02:25:41.804Z,-1.95
2023-02-08T02:28:26.699Z,-2.01
2023-02-08T02:31:02.181Z,-2.14
2023-02-08T02:33:35.294Z,-2.12
2023-02-08T02:36:13.627Z,-1.86
2023-02-08T02:39:14.319Z,-1.98
2023-02-08T02:42:10.577Z,-2.03
2023-02-08T02:45:06.207Z,-2.20
2023-02-08T02:47:52.890Z,-2.34
2023-02-08T02:50:42.238Z,-2.19
2023-02-08T02:53:36.590Z,-2.40
2023-02-08T02:56:15.343Z,-2.58
2023-02-08T02:58:44.427Z,-2.61
2023-02-08T03:01:14.019Z,-2.65
2023-02-08T03:03:42.757Z,-2.77
2023-02-08T03:06:22.349Z,-2.89
2023-02-08T03:09:30.920Z,-2.98
2023-02-08T03:12:27.823Z,-3.01
2023-02-08T03:15:22.025Z,-3.15
2023-02-08T03:18:25.878Z,-3.18
2023-02-08T03:21:01.206Z,-3.29
2023-02-08T03:23:40.568Z,-3.10
2023-02-08T03:26:20.408Z,-3.22
2023-02-08T03:29:16.632Z,-3.10
2023-02-08T03:31:57.978Z,-3.17
2023-02-08T03:34:36.309Z,-3.20
2023-02-08T03:37:10.097Z,-3.14
2023-02-08T03:39:38.893Z,-3.30
2023-02-08T03:42:12.187Z,-3.29
2023-02-08T03:44:51.255Z,-3.42
2023-02-08T03:47:24.836Z,-3.25
2023-02-08T03:49:54.040Z,-3.47
2023-02-08T03:52:24.448Z,-3.47
2023-02-08T03:55:16.443Z,-3.59
2023-02-08T03:57:52.864Z,-3.55
2023-02-08T04:00:22.030Z,-3.64
2023-02-08T04:03:02.832Z,-3.64
2023-02-08T04:05:31.922Z,-3.58
2023-02-08T04:07:58.257Z,-3.54
2023-02-08T04:10:24.726Z,-3.65
2023-02-08T04:12:51.355Z,-3.59
2023-02-08T04:15:17.930Z,-3.57
2023-02-08T04:17:44.520Z,-3.73
2023-02-08T04:20:11.346Z,-3.70
2023-02-08T04:22:37.848Z,-3.82
2023-02-08T04:25:04.884Z,-3.91
2023-02-08T04:27:31.377Z,-3.92
2023-02-08T04:29:57.895Z,-3.95
2023-02-08T04:32:24.260Z,-4.00
2023-02-08T04:34:50.652Z,-3.98
2023-02-08T04:37:17.136Z,-4.00
2023-02-08T04:39:43.497Z,-3.99
2023-02-08T04:42:09.989Z,-4.00
2023-02-08T04:44:42.953Z,-4.07
2023-02-08T04:47:09.321Z,-4.15
2023-02-08T04:49:38.106Z,-4.16
2023-02-08T04:52:06.402Z,-4.14
2023-02-08T04:54:33.853Z,-4.18
2023-02-08T04:57:13.363Z,-4.27
2023-02-08T04:59:43.310Z,-4.32
2023-02-08T05:02:12.219Z,-4.31
2023-02-08T05:04:39.057Z,-4.34
2023-02-08T05:07:07.544Z,-4.35
2023-02-08T05:09:34.470Z,-4.22
2023-02-08T05:12:03.575Z,-4.27
2023-02-08T05:14:29.968Z,-4.29
2023-02-08T05:16:56.505Z,-4.14
2023-02-08T05:19:26.443Z,-4.30
2023-02-08T05:21:53.040Z,-4.35
2023-02-08T05:24:24.337Z,-4.19
2023-02-08T05:26:50.943Z,-4.32
2023-02-08T05:29:19.896Z,-4.28
2023-02-08T05:31:46.589Z,-4.20
2023-02-08T05:34:13.107Z,-4.21
2023-02-08T05:36:39.665Z,-4.21
2023-02-08T05:39:08.611Z,-4.23
2023-02-08T05:41:35.060Z,-4.02
2023-02-08T05:44:03.952Z,-4.27
2023-02-08T05:46:30.615Z,-4.40
2023-02-08T05:49:00.268Z,-4.25
2023-02-08T05:51:26.861Z,-4.41
2023-02-08T05:53:53.274Z,-4.38
2023-02-08T05:56:19.929Z,-4.35
2023-02-08T05:58:46.304Z,-4.32
2023-02-08T06:01:13.921Z,-4.22
2023-02-08T06:03:40.712Z,-3.99
2023-02-08T06:06:07.995Z,-4.14
2023-02-08T06:08:34.465Z,-4.18
2023-02-08T06:11:01.164Z,-4.21
2023-02-08T06:13:29.161Z,-4.32
2023-02-08T06:15:56.548Z,-4.39
2023-02-08T06:18:25.614Z,-4.49
2023-02-08T06:20:55.434Z,-4.26
2023-02-08T06:23:22.894Z,-4.47
2023-02-08T06:25:52.721Z,-4.51
2023-02-08T06:28:19.145Z,-4.55
2023-02-08T06:30:45.740Z,-4.56
2023-02-08T06:33:13.922Z,-4.62
2023-02-08T06:35:46.341Z,-4.71
2023-02-08T06:38:14.051Z,-4.67
2023-02-08T06:40:40.972Z,-4.75
2023-02-08T06:43:07.608Z,-4.55
2023-02-08T06:45:36.594Z,-4.65
2023-02-08T06:48:05.575Z,-4.62
2023-02-08T06:50:32.482Z,-4.67
2023-02-08T06:52:59.081Z,-4.73
2023-02-08T06:55:25.461Z,-4.61
2023-02-08T06:57:55.355Z,-4.65
2023-02-08T07:00:22.243Z,-4.72
2023-02-08T07:02:48.639Z,-4.75
2023-02-08T07:05:15.236Z,-4.66
2023-02-08T07:07:41.625Z,-4.65
2023-02-08T07:10:08.189Z,-4.71
2023-02-08T07:12:36.370Z,-4.60
2023-02-08T07:15:03.936Z,-4.51
2023-02-08T07:17:30.303Z,-4.51
2023-02-08T07:19:57.295Z,-4.61
2023-02-08T07:22:23.830Z,-4.48
2023-02-08T07:24:50.294Z,-4.51
2023-02-08T07:27:16.802Z,-4.26
2023-02-08T07:29:43.216Z,-4.41
2023-02-08T07:32:10.136Z,-4.47
2023-02-08T07:34:53.093Z,-4.31
2023-02-08T07:37:20.958Z,-4.31
2023-02-08T07:39:47.593Z,-4.34
2023-02-08T07:42:14.147Z,-4.23
2023-02-08T07:44:45.644Z,-4.20
2023-02-08T07:47:15.520Z,-4.13
2023-02-08T07:49:41.987Z,-4.20
2023-02-08T07:52:08.848Z,-4.16
2023-02-08T07:54:41.423Z,-4.11
2023-02-08T07:57:08.273Z,-4.00
2023-02-08T07:59:37.306Z,-3.92
2023-02-08T08:02:04.098Z,-3.80
2023-02-08T08:04:30.471Z,-3.71
2023-02-08T08:06:59.155Z,-3.64
2023-02-08T08:09:25.612Z,-3.63
2023-02-08T08:11:52.074Z,-3.51
2023-02-08T08:14:18.540Z,-3.02
2023-02-08T08:16:45.028Z,-3.02
2023-02-08T08:19:11.652Z,-2.72
2023-02-08T08:21:40.706Z,-2.60
2023-02-08T08:24:07.226Z,-2.52
2023-02-08T08:26:40.747Z,-2.36
2023-02-08T08:29:07.258Z,-2.33
2023-02-08T08:31:33.745Z,-2.25
2023-02-08T08:34:00.132Z,-1.95
2023-02-08T08:36:26.529Z,-1.85
2023-02-08T08:38:53.033Z,-1.50
2023-02-08T08:41:21.030Z,-1.55
2023-02-08T08:43:49.867Z,-1.60
2023-02-08T08:46:16.753Z,-1.29
2023-02-08T08:48:43.421Z,-1.32
2023-02-08T08:51:12.997Z,-1.17
2023-02-08T08:53:39.696Z,-1.06
2023-02-08T08:56:06.647Z,-0.99
2023-02-08T08:58:33.118Z,-0.60
2023-02-08T09:01:00.379Z,-0.59
2023-02-08T09:03:27.703Z,-0.63
2023-02-08T09:05:58.724Z,-0.53
2023-02-08T09:08:25.265Z,-0.20
2023-02-08T09:10:51.708Z,-0.11
2023-02-08T09:13:21.697Z,-0.12
2023-02-08T09:15:49.348Z,-0.15
2023-02-08T09:18:16.244Z,0.08
2023-02-08T09:20:43.031Z,0.22
2023-02-08T09:23:09.743Z,0.26
2023-02-08T09:25:36.836Z,0.35
2023-02-08T09:28:03.717Z,0.42
2023-02-08T09:30:33.558Z,0.32
2023-02-08T09:32:59.994Z,0.29
2023-02-08T09:35:26.555Z,0.71
2023-02-08T09:37:55.398Z,0.59
2023-02-08T09:40:29.859Z,0.65
2023-02-08T09:43:31.903Z,0.64
2023-02-08T09:46:07.950Z,0.74
2023-02-08T09:48:40.407Z,1.10
2023-02-08T09:51:25.079Z,1.00
2023-02-08T09:54:00.013Z,1.25
2023-02-08T09:56:41.827Z,1.34
2023-02-08T10:02:38.898Z,1.29
2023-02-08T10:05:16.998Z,1.55
2023-02-08T10:07:43.961Z,1.57
2023-02-08T10:10:35.749Z,1.63
2023-02-08T10:13:41.557Z,1.65
2023-02-08T10:16:23.480Z,1.68
2023-02-08T10:18:52.081Z,1.69
2023-02-08T10:21:48.794Z,1.77
2023-02-08T10:24:27.677Z,1.81
2023-02-08T10:27:08.950Z,1.88
2023-02-08T10:30:29.574Z,1.94
2023-02-08T10:33:07.153Z,2.04
2023-02-08T10:35:42.519Z,2.08
2023-02-08T10:38:24.988Z,2.07
2023-02-08T10:41:02.860Z,2.18
2023-02-08T10:43:38.175Z,2.22
2023-02-08T10:46:09.135Z,2.19
2023-02-08T10:48:35.517Z,2.27
2023-02-08T10:51:02.106Z,2.33
2023-02-08T10:53:28.617Z,2.42
2023-02-08T10:55:55.110Z,2.48
2023-02-08T10:58:28.980Z,2.49
2023-02-08T11:00:59.619Z,2.65
2023-02-08T11:03:31.195Z,2.83
2023-02-08T11:06:00.727Z,2.78
2023-02-08T11:08:44.553Z,2.73
2023-02-08T11:11:11.171Z,2.95
2023-02-08T11:13:40.656Z,2.79
2023-02-08T11:16:54.482Z,2.89
2023-02-08T11:19:49.899Z,2.88
2023-02-08T11:22:32.727Z,3.00
2023-02-08T11:25:08.078Z,3.10
2023-02-08T11:27:43.202Z,2.98
2023-02-08T11:30:19.503Z,3.05
2023-02-08T11:32:48.887Z,3.13
2023-02-08T11:35:23.935Z,3.06
2023-02-08T11:38:02.489Z,3.14
2023-02-08T11:40:35.966Z,3.20
2023-02-08T11:43:03.928Z,3.18
2023-02-08T11:45:33.967Z,3.28
2023-02-08T11:48:09.632Z,3.32
2023-02-08T11:50:44.094Z,3.42
2023-02-08T11:53:27.839Z,3.44
2023-02-08T11:56:22.630Z,3.42
2023-02-08T11:59:12.357Z,3.46
2023-02-08T12:01:41.576Z,3.46
2023-02-08T12:04:16.506Z,3.51
2023-02-08T12:06:55.227Z,3.57
2023-02-08T12:09:59.419Z,3.60
2023-02-08T12:12:43.769Z,3.69
2023-02-08T12:15:26.785Z,3.79
2023-02-08T12:18:31.649Z,3.89
2023-02-08T12:21:25.647Z,3.94
2023-02-08T12:24:46.076Z,3.87
2023-02-08T12:27:24.297Z,3.97
2023-02-08T12:29:55.321Z,4.17
2023-02-08T12:32:40.520Z,4.08
2023-02-08T12:35:10.311Z,4.12
2023-02-08T12:38:38.113Z,4.12
2023-02-08T12:41:17.905Z,4.14
2023-02-08T12:44:06.935Z,4.30
2023-02-08T12:46:56.268Z,4.25
2023-02-08T12:49:30.375Z,4.24
2023-02-08T12:52:21.223Z,4.19
2023-02-08T12:54:59.136Z,4.32
2023-02-08T12:57:31.963Z,4.14
2023-02-08T13:00:09.061Z,4.18
2023-02-08T13:02:46.078Z,4.26
2023-02-08T13:05:22.183Z,4.24
2023-02-08T13:07:58.416Z,4.37
2023-02-08T13:10:40.422Z,4.26
2023-02-08T13:13:21.722Z,4.30
2023-02-08T13:15:59.939Z,4.24
2023-02-08T13:18:53.521Z,4.24
2023-02-08T13:21:25.968Z,4.24
2023-02-08T13:23:55.245Z,4.34
2023-02-08T13:26:33.286Z,4.35
2023-02-08T13:29:04.226Z,4.29
2023-02-08T13:31:58.191Z,4.32
2023-02-08T13:34:50.911Z,4.37
2023-02-08T13:37:31.536Z,4.31
2023-02-08T13:40:09.262Z,4.47
2023-02-08T13:42:43.988Z,4.45
2023-02-08T13:45:37.870Z,4.47
2023-02-08T13:48:13.595Z,4.46
2023-02-08T13:50:51.176Z,4.45
2023-02-08T13:53:25.419Z,4.45
2023-02-08T13:56:01.287Z,4.44
2023-02-08T13:58:48.020Z,4.44
2023-02-08T14:01:20.763Z,4.48
2023-02-08T14:04:12.585Z,4.34
2023-02-08T14:06:44.167Z,4.49
2023-02-08T14:09:24.702Z,4.50
2023-02-08T14:12:00.152Z,4.40
2023-02-08T14:14:40.080Z,4.43
2023-02-08T14:17:30.047Z,4.48
2023-02-08T14:20:06.824Z,4.41
2023-02-08T14:22:42.198Z,4.32
2023-02-08T14:25:19.583Z,4.34
2023-02-08T14:28:25.221Z,4.38
2023-02-08T14:30:58.730Z,4.39
2023-02-08T14:33:34.052Z,4.33
2023-02-08T14:36:08.251Z,4.29
2023-02-08T14:39:04.084Z,4.29
2023-02-08T14:42:04.072Z,4.35
2023-02-08T14:44:41.568Z,4.34
2023-02-08T14:47:25.846Z,4.33
2023-02-08T14:50:07.336Z,4.23
2023-02-08T14:52:35.488Z,4.33
2023-02-08T14:55:19.843Z,4.42
2023-02-08T14:57:46.609Z,4.29
2023-02-08T15:00:24.045Z,4.14
2023-02-08T15:03:00.504Z,4.33
2023-02-08T15:05:35.732Z,4.28
2023-02-08T15:08:10.595Z,4.19
2023-02-08T15:10:45.447Z,4.30
2023-02-08T15:13:21.705Z,4.18
2023-02-08T15:15:53.143Z,4.06
2023-02-08T15:18:25.068Z,4.10
2023-02-08T15:21:11.578Z,3.95
2023-02-08T15:23:40.387Z,3.85
2023-02-08T15:26:23.997Z,3.95
2023-02-08T15:29:05.312Z,3.95
2023-02-08T15:31:33.768Z,3.81
2023-02-08T15:34:02.348Z,3.74
2023-02-08T15:36:34.652Z,3.64
2023-02-08T15:39:24.782Z,3.81
2023-02-08T15:42:02.663Z,3.79
2023-02-08T15:44:37.934Z,3.75
2023-02-08T15:47:34.743Z,3.79
2023-02-08T15:50:03.161Z,3.73
2023-02-08T15:52:33.041Z,3.61
2023-02-08T15:54:59.562Z,3.59
2023-02-08T15:57:33.572Z,3.63
2023-02-08T16:00:01.569Z,3.56
2023-02-08T16:02:37.199Z,3.50
2023-02-08T16:05:18.041Z,3.38
2023-02-08T16:07:45.984Z,3.30
2023-02-08T16:10:36.900Z,3.34
2023-02-08T16:13:07.569Z,3.21
2023-02-08T16:16:03.810Z,3.17
2023-02-08T16:18:34.901Z,3.15
2023-02-08T16:21:16.118Z,3.00
2023-02-08T16:23:55.329Z,2.93
2023-02-08T16:26:33.705Z,2.88
2023-02-08T16:29:05.240Z,2.75
2023-02-08T16:31:35.809Z,2.82
2023-02-08T16:36:51.187Z,2.74
2023-02-08T16:39:17.914Z,2.81
2023-02-08T16:42:00.977Z,2.73
2023-02-08T16:44:39.084Z,2.63
2023-02-08T16:47:25.725Z,2.66
2023-02-08T16:49:52.386Z,2.87
2023-02-08T16:52:19.370Z,2.74
2023-02-08T16:54:54.660Z,2.68
2023-02-08T16:57:24.409Z,2.75
2023-02-08T16:59:59.673Z,2.78
2023-02-08T17:02:31.376Z,2.84
2023-02-08T17:04:57.768Z,2.82
2023-02-08T17:07:29.732Z,2.85
2023-02-08T17:09:59.515Z,2.73
2023-02-08T17:12:34.407Z,2.84
2023-02-08T17:15:04.363Z,2.64
2023-02-08T17:17:34.990Z,2.71
2023-02-08T17:20:11.160Z,2.74
2023-02-08T17:22:37.582Z,2.55
2023-02-08T17:25:07.078Z,2.49
2023-02-08T17:27:33.887Z,2.49
2023-02-08T17:30:02.288Z,2.27
2023-02-08T17:32:31.274Z,2.35
2023-02-08T17:35:09.730Z,2.30
2023-02-08T17:37:36.724Z,2.22
2023-02-08T17:40:06.495Z,2.32
2023-02-08T17:42:33.181Z,2.39
2023-02-08T17:45:01.977Z,2.29
2023-02-08T17:47:33.474Z,2.29
2023-02-08T17:50:01.415Z,2.21
2023-02-08T17:52:30.456Z,2.08
2023-02-08T17:55:00.525Z,2.21
2023-02-08T17:57:29.619Z,2.12
2023-02-08T17:59:56.278Z,2.05
2023-02-08T18:02:24.866Z,1.88
2023-02-08T18:04:51.331Z,1.92
2023-02-08T18:07:25.626Z,1.77
2023-02-08T18:09:52.280Z,1.75
2023-02-08T18:12:28.718Z,1.57
2023-02-08T18:14:58.665Z,1.55
2023-02-08T18:17:25.227Z,1.40
2023-02-08T18:19:52.318Z,1.56
2023-02-08T18:22:22.101Z,1.60
2023-02-08T18:24:51.970Z,1.46
2023-02-08T18:27:18.568Z,1.36
2023-02-08T18:29:51.520Z,1.45
2023-02-08T18:32:20.437Z,1.46
2023-02-08T18:34:50.130Z,1.40
2023-02-08T18:37:20.377Z,1.41
2023-02-08T18:39:55.515Z,1.36
2023-02-08T18:42:22.105Z,1.34
2023-02-08T18:44:58.609Z,1.50
2023-02-08T18:47:25.257Z,1.55
2023-02-08T18:49:55.452Z,1.60
2023-02-08T18:52:23.650Z,1.45
2023-02-08T18:54:50.347Z,1.59
2023-02-08T18:57:16.840Z,1.49
2023-02-08T18:59:46.320Z,1.69
2023-02-08T19:02:22.166Z,1.64
2023-02-08T19:04:49.071Z,1.53
2023-02-08T19:07:16.345Z,1.63
2023-02-08T19:09:44.290Z,1.61
2023-02-08T19:12:13.543Z,1.51
2023-02-08T19:14:43.957Z,1.48
2023-02-08T19:17:12.444Z,1.35
2023-02-08T19:19:40.839Z,1.24
2023-02-08T19:22:07.269Z,1.17
2023-02-08T19:24:33.806Z,1.10
2023-02-08T19:27:03.468Z,1.12
2023-02-08T19:29:29.814Z,0.96
2023-02-08T19:31:58.387Z,0.98
2023-02-08T19:34:30.720Z,0.95
2023-02-08T19:37:01.933Z,0.90
2023-02-08T19:39:28.399Z,0.70
2023-02-08T19:41:55.480Z,0.65
2023-02-08T19:44:23.093Z,0.51
2023-02-08T19:46:54.871Z,0.35
2023-02-08T19:49:28.602Z,0.41
2023-02-08T19:52:02.511Z,0.21
2023-02-08T19:54:29.311Z,0.12
2023-02-08T19:57:01.138Z,0.09
2023-02-08T19:59:29.925Z,0.13
2023-02-08T20:01:56.845Z,0.06
2023-02-08T20:04:36.543Z,0.04
2023-02-08T20:07:07.129Z,-0.09
2023-02-08T20:09:37.017Z,-0.09
2023-02-08T20:12:04.148Z,-0.18
2023-02-08T20:14:34.310Z,-0.09
2023-02-08T20:17:11.039Z,-0.25
2023-02-08T20:19:38.843Z,0.26
2023-02-08T20:22:07.946Z,0.32
2023-02-08T20:24:42.057Z,0.17
2023-02-08T20:27:11.542Z,0.32
2023-02-08T20:29:40.643Z,0.21
2023-02-08T20:32:08.142Z,0.21
2023-02-08T20:34:47.473Z,0.09
2023-02-08T20:37:22.944Z,0.04
2023-02-08T20:39:59.523Z,-0.12
2023-02-08T20:42:25.885Z,-0.12
2023-02-08T20:44:53.446Z,-0.04
2023-02-08T20:47:23.207Z,-0.10
2023-02-08T20:49:50.361Z,-0.06
2023-02-08T20:52:28.801Z,-0.15
2023-02-08T20:54:55.621Z,-0.13
2023-02-08T20:57:22.403Z,-0.01
2023-02-08T20:59:53.633Z,-0.09
2023-02-08T21:02:23.324Z,-0.11
2023-02-08T21:04:52.702Z,-0.12
2023-02-08T21:07:27.299Z,-0.10
2023-02-08T21:10:01.738Z,-0.03
2023-02-08T21:12:30.385Z,-0.04
2023-02-08T21:14:58.136Z,-0.03
2023-02-08T21:17:24.776Z,-0.03
2023-02-08T21:19:51.326Z,-0.07
2023-02-08T21:22:20.660Z,0.03
2023-02-08T21:24:55.161Z,0.00
2023-02-08T21:27:29.364Z,0.13
2023-02-08T21:29:56.112Z,0.14
2023-02-08T21:32:25.088Z,0.03
2023-02-08T21:34:53.303Z,0.02
2023-02-08T21:37:22.050Z,0.04
2023-02-08T21:39:48.520Z,0.05
2023-02-08T21:42:15.004Z,0.04
2023-02-08T21:44:41.506Z,0.06
2023-02-08T21:47:08.017Z,-0.04
2023-02-08T21:49:53.484Z,0.10
2023-02-08T21:52:51.960Z,-0.07
2023-02-08T21:55:18.372Z,-0.10
2023-02-08T21:57:47.417Z,-0.18
2023-02-08T22:00:14.682Z,-0.27
2023-02-08T22:02:44.620Z,-0.18
2023-02-08T22:05:14.240Z,-0.18
2023-02-08T22:07:56.364Z,-0.27
2023-02-08T22:10:25.634Z,-0.29
2023-02-08T22:12:55.427Z,-0.31
2023-02-08T22:15:24.284Z,-0.59
2023-02-08T22:18:03.384Z,-0.60
2023-02-08T22:20:32.785Z,-0.75
2023-02-08T22:22:59.231Z,-0.67
2023-02-08T22:25:31.122Z,-0.71
2023-02-08T22:28:00.267Z,-0.64
2023-02-08T22:30:26.889Z,-0.70
2023-02-08T22:32:53.381Z,-0.76
2023-02-08T22:35:20.592Z,-0.55
2023-02-08T22:37:47.128Z,-0.62
2023-02-08T22:40:17.134Z,-0.66
2023-02-08T22:42:47.402Z,-0.54
2023-02-08T22:45:16.341Z,-0.69
2023-02-08T22:47:46.212Z,-0.60
2023-02-08T22:50:16.069Z,-0.68
2023-02-08T22:52:45.295Z,-0.76
2023-02-08T22:55:12.336Z,-0.89
2023-02-08T22:57:44.476Z,-0.79
2023-02-08T23:00:19.446Z,-0.73
2023-02-08T23:02:51.293Z,-0.62
2023-02-08T23:05:18.306Z,-0.72
2023-02-08T23:07:44.802Z,-0.58
2023-02-08T23:10:11.635Z,-0.76
2023-02-08T23:12:40.997Z,-0.70
2023-02-08T23:15:16.455Z,-0.72
2023-02-08T23:17:43.400Z,-1.00
2023-02-08T23:20:10.406Z,-0.95
2023-02-08T23:22:37.786Z,-0.93
2023-02-08T23:25:05.051Z,-1.11
2023-02-08T23:27:41.503Z,-1.21
2023-02-08T23:30:10.355Z,-1.37
2023-02-08T23:32:39.901Z,-1.53
2023-02-08T23:35:11.553Z,-1.62
2023-02-08T23:37:38.170Z,-1.67
2023-02-08T23:40:07.510Z,-1.56
2023-02-08T23:42:34.098Z,-1.74
2023-02-08T23:45:01.368Z,-1.72
2023-02-08T23:47:40.392Z,-1.82
2023-02-08T23:50:19.160Z,-1.95
2023-02-08T23:52:45.689Z,-2.07
2023-02-08T23:55:12.352Z,-2.19
2023-02-08T23:57:42.722Z,-2.29
